Time;durP1;ratioP1;P1;durP2;ratioP2;P2;SDS_P1;SDS_P2;PMS_P1;PMS_P2;Temp;Humidity;BMP_temperature;BMP_pressure;BME280_temperature;BME280_humidity;BME280_pressure;Samples;Min_cycle;Max_cycle;Signal;HPM_P1;HPM_P2
2022/02/26 00:01:25;;;;;;;4.82;2.05;;;3.10;99.90;;;;;;4950672;28;20551;-76
2022/02/26 00:03:50;;;;;;;4.20;1.85;;;3.80;99.90;;;;;;4968062;28;20031;-75
2022/02/26 00:06:16;;;;;;;4.45;1.80;;;3.00;99.90;;;;;;4968440;28;20069;-75
2022/02/26 00:08:42;;;;;;;4.30;1.75;;;2.90;99.90;;;;;;4967058;28;20035;-75
2022/02/26 00:11:07;;;;;;;6.93;2.50;;;2.90;99.90;;;;;;4968347;28;20522;-76
2022/02/26 00:13:33;;;;;;;4.18;1.95;;;2.80;99.90;;;;;;4950298;28;20507;-76
2022/02/26 00:15:59;;;;;;;7.03;2.40;;;4.40;99.90;;;;;;4950571;28;20484;-75
2022/02/26 00:18:24;;;;;;;5.18;2.70;;;4.30;99.90;;;;;;4967703;28;20035;-75
2022/02/26 00:20:50;;;;;;;4.05;2.47;;;2.80;99.90;;;;;;4968117;28;20039;-76
2022/02/26 00:23:18;;;;;;;6.03;2.45;;;2.90;99.90;;;;;;4968425;28;20037;-76
2022/02/26 00:25:44;;;;;;;5.55;2.40;;;2.80;99.90;;;;;;4967713;28;20034;-76
2022/02/26 00:28:09;;;;;;;4.75;2.40;;;4.90;99.90;;;;;;4967292;28;20027;-76
2022/02/26 00:30:35;;;;;;;8.30;2.70;;;2.80;99.90;;;;;;4967339;28;20443;-75
2022/02/26 00:33:00;;;;;;;4.35;2.50;;;4.10;99.90;;;;;;4967311;28;20118;-76
2022/02/26 00:35:26;;;;;;;6.53;2.22;;;2.70;99.90;;;;;;4967192;28;20121;-76
2022/02/26 00:37:52;;;;;;;6.70;2.20;;;2.70;99.90;;;;;;4968123;28;20055;-76
2022/02/26 00:40:18;;;;;;;4.22;2.17;;;2.70;99.90;;;;;;4966790;28;20427;-76
2022/02/26 00:42:44;;;;;;;6.03;2.80;;;2.70;99.90;;;;;;4967691;28;20484;-76
2022/02/26 00:45:09;;;;;;;5.70;2.67;;;2.80;99.90;;;;;;4949872;28;20034;-76
2022/02/26 00:47:35;;;;;;;7.47;2.58;;;2.60;99.90;;;;;;4966973;28;20038;-76
2022/02/26 00:50:02;;;;;;;5.15;2.67;;;2.60;99.90;;;;;;4966762;28;20032;-75
2022/02/26 00:52:31;;;;;;;9.52;2.90;;;2.50;99.90;;;;;;4967076;28;20034;-75
2022/02/26 00:54:58;;;;;;;6.57;3.10;;;2.50;99.90;;;;;;4967243;28;20022;-75
2022/02/26 00:57:25;;;;;;;6.38;3.30;;;2.60;99.90;;;;;;4950705;28;20031;-75
2022/02/26 00:59:51;;;;;;;4.93;2.85;;;2.60;99.90;;;;;;4966177;28;20124;-76
2022/02/26 01:02:18;;;;;;;8.90;3.42;;;2.70;99.90;;;;;;4966972;28;20023;-76
2022/02/26 01:04:44;;;;;;;8.65;3.00;;;4.40;99.90;;;;;;4967447;28;20057;-76
2022/02/26 01:07:10;;;;;;;11.05;2.88;;;2.60;99.90;;;;;;4966873;28;20031;-76
2022/02/26 01:09:37;;;;;;;10.80;3.15;;;2.90;99.90;;;;;;4966179;28;20030;-76
2022/02/26 01:12:04;;;;;;;6.80;2.80;;;2.80;99.90;;;;;;4967062;28;20019;-76
2022/02/26 01:14:30;;;;;;;5.25;2.60;;;3.00;99.90;;;;;;4966557;28;20100;-76
2022/02/26 01:16:55;;;;;;;6.88;3.13;;;3.10;99.90;;;;;;4967383;28;20058;-76
2022/02/26 01:19:21;;;;;;;8.00;3.03;;;3.10;99.90;;;;;;4965892;28;20088;-76
2022/02/26 01:21:47;;;;;;;5.40;2.78;;;3.70;99.90;;;;;;4964598;28;20457;-76
2022/02/26 01:24:13;;;;;;;7.93;2.67;;;3.00;99.90;;;;;;4950117;28;20027;-76
2022/02/26 01:26:39;;;;;;;5.45;2.85;;;2.90;99.90;;;;;;4966508;28;20030;-76
2022/02/26 01:29:05;;;;;;;8.43;3.40;;;3.00;99.90;;;;;;4965847;28;20031;-76
2022/02/26 01:31:32;;;;;;;5.63;2.92;;;3.00;99.90;;;;;;4966659;28;20671;-76
2022/02/26 01:33:58;;;;;;;7.20;3.45;;;3.80;99.90;;;;;;4966152;28;20533;-76
2022/02/26 01:36:26;;;;;;;7.72;3.58;;;2.80;99.90;;;;;;4967035;28;20440;-76
2022/02/26 01:38:52;;;;;;;8.88;3.33;;;2.90;99.90;;;;;;4966061;28;20606;-76
2022/02/26 01:41:17;;;;;;;6.78;3.13;;;2.80;99.90;;;;;;4965762;28;20557;-76
2022/02/26 01:43:43;;;;;;;7.78;3.38;;;2.90;99.90;;;;;;4966997;28;20031;-76
2022/02/26 01:46:10;;;;;;;6.65;3.22;;;2.90;99.90;;;;;;4966296;28;20026;-76
2022/02/26 01:48:36;;;;;;;8.38;3.58;;;2.80;99.90;;;;;;4965579;28;20035;-76
2022/02/26 01:51:03;;;;;;;8.20;3.67;;;2.80;99.90;;;;;;4966684;28;20473;-76
2022/02/26 01:53:28;;;;;;;5.45;3.53;;;2.90;99.90;;;;;;4965904;28;20060;-76
2022/02/26 01:55:54;;;;;;;7.82;3.95;;;2.90;99.90;;;;;;4949456;28;20027;-76
2022/02/26 01:58:20;;;;;;;7.43;4.20;;;2.90;99.90;;;;;;4966330;28;20031;-76
2022/02/26 02:00:46;;;;;;;8.77;4.20;;;2.90;99.90;;;;;;4965284;28;20039;-76
2022/02/26 02:03:12;;;;;;;6.65;3.80;;;2.90;99.90;;;;;;4966831;28;20031;-76
2022/02/26 02:05:38;;;;;;;7.80;4.03;;;2.90;99.90;;;;;;4965959;28;20091;-76
2022/02/26 02:08:04;;;;;;;5.63;3.40;;;3.00;99.90;;;;;;4966379;28;20110;-76
2022/02/26 02:10:29;;;;;;;6.30;3.70;;;2.90;99.90;;;;;;4965702;28;20851;-76
2022/02/26 02:12:55;;;;;;;9.15;3.88;;;2.90;99.90;;;;;;4965942;28;20502;-76
2022/02/26 02:15:40;;;;;;;7.25;4.18;;;2.80;99.90;;;;;;4949551;28;20034;-76
2022/02/26 02:18:08;;;;;;;9.90;4.50;;;3.30;99.90;;;;;;4949191;28;20100;-76
2022/02/26 02:20:34;;;;;;;7.97;5.15;;;2.60;99.90;;;;;;4965663;28;20035;-76
2022/02/26 02:23:00;;;;;;;9.10;4.78;;;2.70;99.90;;;;;;4968249;28;20045;-76
2022/02/26 02:25:31;;;;;;;8.20;5.20;;;2.50;99.90;;;;;;4969229;28;20476;-76
2022/02/26 02:27:58;;;;;;;7.60;4.95;;;3.80;99.90;;;;;;4969833;28;20454;-76
2022/02/26 02:30:25;;;;;;;8.98;5.20;;;2.20;99.90;;;;;;4968404;28;20108;-76
2022/02/26 02:32:52;;;;;;;10.60;5.90;;;2.20;99.90;;;;;;4969054;28;20034;-76
2022/02/26 02:35:38;;;;;;;11.05;5.40;;;2.20;99.90;;;;;;4969634;28;20030;-76
2022/02/26 02:38:12;;;;;;;11.50;5.32;;;2.00;99.90;;;;;;4969307;28;20113;-76
2022/02/26 02:40:39;;;;;;;11.02;5.55;;;1.70;99.90;;;;;;4968851;28;20039;-77
2022/02/26 02:43:05;;;;;;;9.55;5.68;;;1.50;99.90;;;;;;4969412;28;20047;-76
2022/02/26 02:45:32;;;;;;;9.88;6.13;;;1.30;99.90;;;;;;4968958;28;20083;-76
2022/02/26 02:47:58;;;;;;;11.25;5.80;;;1.50;99.90;;;;;;4969324;28;20023;-76
2022/02/26 02:50:24;;;;;;;11.60;7.30;;;1.50;99.90;;;;;;4968085;28;20034;-76
2022/02/26 02:52:49;;;;;;;14.25;6.88;;;1.60;99.90;;;;;;4968270;28;20450;-76
2022/02/26 02:55:16;;;;;;;16.40;7.75;;;1.70;99.90;;;;;;4969476;28;20027;-76
2022/02/26 02:57:45;;;;;;;14.57;7.72;;;1.70;99.90;;;;;;4968819;28;20399;-76
2022/02/26 03:00:13;;;;;;;13.93;6.50;;;1.60;99.90;;;;;;4968064;28;20037;-76
2022/02/26 03:02:39;;;;;;;11.63;6.68;;;1.70;99.90;;;;;;4969045;28;20140;-76
2022/02/26 03:05:05;;;;;;;14.73;7.35;;;1.60;99.90;;;;;;4968569;28;20394;-76
2022/02/26 03:07:31;;;;;;;10.35;7.05;;;1.70;99.90;;;;;;4968825;28;20125;-76
2022/02/26 03:09:57;;;;;;;11.57;6.65;;;2.00;99.90;;;;;;4968351;28;20133;-77
2022/02/26 03:12:22;;;;;;;14.82;7.18;;;1.60;99.90;;;;;;4951023;28;20030;-75
2022/02/26 03:14:48;;;;;;;10.25;6.47;;;1.40;99.90;;;;;;4968855;28;20114;-75
2022/02/26 03:17:13;;;;;;;12.40;6.30;;;1.20;99.90;;;;;;4968303;28;20030;-75
2022/02/26 03:19:39;;;;;;;11.68;6.43;;;1.00;99.90;;;;;;4967423;28;20052;-75
2022/02/26 03:22:05;;;;;;;8.55;6.55;;;1.00;99.90;;;;;;4969158;28;20030;-75
2022/02/26 03:24:32;;;;;;;13.50;6.15;;;0.90;99.90;;;;;;4963588;28;20043;-75
2022/02/26 03:26:58;;;;;;;12.43;7.43;;;0.80;99.90;;;;;;4951317;28;20059;-76
2022/02/26 03:29:24;;;;;;;12.55;6.97;;;0.70;99.90;;;;;;4957349;28;20052;-76
2022/02/26 03:31:50;;;;;;;14.13;6.90;;;0.70;99.90;;;;;;4963204;28;20031;-76
2022/02/26 03:34:16;;;;;;;12.85;7.18;;;0.80;99.90;;;;;;4968532;28;20102;-76
2022/02/26 03:36:41;;;;;;;11.23;6.97;;;0.80;99.90;;;;;;4968311;28;20058;-76
2022/02/26 03:39:07;;;;;;;11.18;8.00;;;0.80;99.90;;;;;;4967717;28;20035;-76
2022/02/26 03:41:33;;;;;;;13.43;6.63;;;0.80;99.90;;;;;;4968755;28;20547;-76
2022/02/26 03:43:58;;;;;;;15.23;6.47;;;0.70;99.90;;;;;;4968080;28;20050;-76
2022/02/26 03:46:24;;;;;;;18.50;10.63;;;0.40;99.90;;;;;;4968506;28;20496;-76
2022/02/26 03:48:53;;;;;;;15.75;7.45;;;0.20;99.90;;;;;;4967409;28;20054;-76
2022/02/26 03:51:18;;;;;;;13.13;7.00;;;0.00;99.90;;;;;;4967841;28;20056;-76
2022/02/26 03:53:44;;;;;;;14.30;7.30;;;0.10;99.90;;;;;;4968449;28;20035;-76
2022/02/26 03:56:10;;;;;;;12.80;7.97;;;0.00;99.90;;;;;;4968001;28;20126;-76
2022/02/26 03:58:35;;;;;;;15.30;7.80;;;-0.30;99.90;;;;;;4967327;28;20484;-76
2022/02/26 04:01:01;;;;;;;15.27;7.53;;;-0.30;99.90;;;;;;4968330;28;20732;-76
2022/02/26 04:03:27;;;;;;;16.55;9.57;;;0.40;99.90;;;;;;4967743;28;20495;-76
2022/02/26 04:05:52;;;;;;;37.63;16.85;;;-0.30;99.90;;;;;;4968172;28;20068;-75
2022/02/26 04:08:18;;;;;;;40.22;19.45;;;0.00;99.90;;;;;;4967516;28;20027;-76
2022/02/26 04:10:43;;;;;;;21.35;9.98;;;-0.20;99.90;;;;;;4966952;28;20112;-76
2022/02/26 04:13:09;;;;;;;17.92;8.95;;;0.00;99.90;;;;;;4951262;28;20389;-75
2022/02/26 04:15:35;;;;;;;34.00;14.52;;;0.20;99.90;;;;;;4967633;28;20034;-76
2022/02/26 04:18:01;;;;;;;26.15;10.93;;;0.20;99.90;;;;;;4967949;28;20027;-76
2022/02/26 04:20:27;;;;;;;15.18;9.30;;;0.10;99.90;;;;;;4967377;28;20126;-76
2022/02/26 04:22:52;;;;;;;19.55;9.02;;;-0.10;99.90;;;;;;4967209;28;20438;-76
2022/02/26 04:25:18;;;;;;;21.58;9.65;;;-0.10;99.90;;;;;;4968300;28;20492;-76
2022/02/26 04:27:44;;;;;;;19.50;9.75;;;-0.10;99.90;;;;;;4967516;28;20119;-76
2022/02/26 04:30:10;;;;;;;19.45;10.80;;;-0.10;99.90;;;;;;4966938;28;20039;-76
2022/02/26 04:32:37;;;;;;;24.15;10.80;;;-0.30;99.90;;;;;;4950823;28;20031;-77
2022/02/26 04:35:04;;;;;;;25.50;11.52;;;-0.20;99.90;;;;;;4966494;28;20027;-76
2022/02/26 04:37:30;;;;;;;22.92;9.98;;;-0.10;99.90;;;;;;4966924;28;20094;-77
2022/02/26 04:39:55;;;;;;;20.63;10.70;;;-0.10;99.90;;;;;;4967462;28;20454;-77
2022/02/26 04:42:21;;;;;;;14.07;8.57;;;-0.20;99.90;;;;;;4967183;28;20039;-76
2022/02/26 04:44:47;;;;;;;23.50;9.60;;;0.00;99.90;;;;;;4967627;28;20380;-76
2022/02/26 04:47:13;;;;;;;22.60;11.25;;;0.20;99.90;;;;;;4967284;28;20030;-76
2022/02/26 04:49:40;;;;;;;17.92;10.30;;;-0.10;99.90;;;;;;4966014;28;20495;-77
2022/02/26 04:52:06;;;;;;;18.40;10.25;;;-0.10;99.90;;;;;;4967572;28;20030;-76
2022/02/26 04:54:32;;;;;;;17.38;9.73;;;2.00;99.90;;;;;;4966980;28;20084;-77
2022/02/26 04:56:58;;;;;;;15.40;8.55;;;-0.10;99.90;;;;;;4949850;28;20027;-77
2022/02/26 04:59:24;;;;;;;24.50;10.00;;;0.10;99.90;;;;;;4966689;28;20681;-77
2022/02/26 05:01:49;;;;;;;18.17;10.27;;;0.20;99.90;;;;;;4966986;28;20031;-76
2022/02/26 05:04:15;;;;;;;17.75;10.38;;;0.10;99.90;;;;;;4967113;28;20039;-77
2022/02/26 05:06:41;;;;;;;19.42;11.90;;;0.20;99.90;;;;;;4949550;28;20034;-77
2022/02/26 05:09:06;;;;;;;23.45;12.77;;;0.10;99.90;;;;;;4966214;28;20049;-77
2022/02/26 05:11:32;;;;;;;24.13;12.80;;;0.30;99.90;;;;;;4967674;28;20597;-77
2022/02/26 05:13:57;;;;;;;30.50;16.27;;;0.40;99.90;;;;;;4966436;28;20130;-77
2022/02/26 05:16:23;;;;;;;27.83;14.25;;;0.60;99.90;;;;;;4968302;28;20080;-76
2022/02/26 05:18:49;;;;;;;26.92;14.23;;;0.60;99.90;;;;;;4967364;28;20047;-77
2022/02/26 05:21:15;;;;;;;26.35;15.15;;;0.50;99.90;;;;;;4950380;28;20039;-76
2022/02/26 05:23:42;;;;;;;27.40;14.85;;;0.60;99.90;;;;;;4967451;28;20388;-76
2022/02/26 05:26:12;;;;;;;32.03;14.48;;;0.50;99.90;;;;;;4966885;28;20031;-77
2022/02/26 05:28:38;;;;;;;30.73;15.05;;;0.80;99.90;;;;;;4965960;28;20504;-77
2022/02/26 05:31:04;;;;;;;28.40;16.35;;;0.50;99.90;;;;;;4967029;28;20117;-77
2022/02/26 05:33:30;;;;;;;35.00;15.20;;;0.50;99.90;;;;;;4966415;28;20198;-77
2022/02/26 05:35:56;;;;;;;33.67;16.58;;;0.60;99.90;;;;;;4966401;28;20487;-76
2022/02/26 05:38:21;;;;;;;27.55;15.82;;;0.50;99.90;;;;;;4967028;28;20037;-76
2022/02/26 05:40:47;;;;;;;30.85;17.17;;;0.50;99.90;;;;;;4966164;28;20453;-77
2022/02/26 05:43:13;;;;;;;30.40;17.25;;;0.60;99.90;;;;;;4966908;28;20807;-77
2022/02/26 05:45:39;;;;;;;31.63;17.25;;;0.30;99.90;;;;;;4949316;28;20042;-76
2022/02/26 05:48:05;;;;;;;42.90;20.05;;;0.50;99.90;;;;;;4949090;28;20398;-76
2022/02/26 05:50:31;;;;;;;37.90;20.45;;;0.60;99.90;;;;;;4966046;28;20034;-77
2022/02/26 05:52:57;;;;;;;40.67;21.60;;;0.90;99.90;;;;;;4965878;28;20069;-77
2022/02/26 05:55:23;;;;;;;35.10;20.05;;;0.90;99.90;;;;;;4966488;28;20062;-77
2022/02/26 05:57:49;;;;;;;39.25;21.48;;;0.80;99.90;;;;;;4965659;28;20062;-77
2022/02/26 06:00:15;;;;;;;37.10;21.70;;;0.70;99.90;;;;;;4965321;28;20077;-77
2022/02/26 06:02:40;;;;;;;38.33;19.98;;;0.70;99.90;;;;;;4966883;28;20105;-77
2022/02/26 06:05:07;;;;;;;32.13;18.80;;;0.70;99.90;;;;;;4948878;28;20027;-77
2022/02/26 06:07:33;;;;;;;43.03;20.48;;;0.60;99.90;;;;;;4966167;28;20037;-77
2022/02/26 06:09:59;;;;;;;39.20;21.52;;;0.60;99.90;;;;;;4965963;28;20403;-77
2022/02/26 06:12:25;;;;;;;41.88;21.45;;;0.70;99.90;;;;;;4965964;28;20035;-77
2022/02/26 06:14:50;;;;;;;43.08;22.25;;;0.70;99.90;;;;;;4966559;28;20027;-77
2022/02/26 06:17:16;;;;;;;42.83;23.50;;;0.70;99.90;;;;;;4966568;28;20114;-77
2022/02/26 06:19:42;;;;;;;36.00;20.67;;;0.90;99.90;;;;;;4964793;28;20035;-77
2022/02/26 06:22:07;;;;;;;35.95;20.42;;;1.00;99.90;;;;;;4966627;28;20122;-77
2022/02/26 06:24:34;;;;;;;35.85;20.92;;;0.70;99.90;;;;;;4965963;28;20403;-76
2022/02/26 06:26:59;;;;;;;40.97;20.25;;;0.70;99.90;;;;;;4965998;28;20027;-76
2022/02/26 06:29:25;;;;;;;36.08;19.92;;;0.70;99.90;;;;;;4949230;28;20031;-77
2022/02/26 06:31:50;;;;;;;40.25;21.40;;;0.70;99.90;;;;;;4965724;28;20039;-76
2022/02/26 06:34:16;;;;;;;40.08;20.13;;;0.70;99.90;;;;;;4966061;28;20084;-77
2022/02/26 06:36:42;;;;;;;39.45;21.15;;;0.70;99.90;;;;;;4965951;28;20039;-77
2022/02/26 06:39:09;;;;;;;34.17;20.63;;;0.80;99.90;;;;;;4964994;28;20038;-77
2022/02/26 06:41:34;;;;;;;38.70;20.35;;;0.80;99.90;;;;;;4966305;28;20673;-76
2022/02/26 06:44:01;;;;;;;38.83;21.73;;;0.70;99.90;;;;;;4965531;28;20026;-76
2022/02/26 06:46:27;;;;;;;37.60;19.83;;;0.70;99.90;;;;;;4965702;28;20022;-76
2022/02/26 06:48:53;;;;;;;40.72;21.45;;;0.60;99.90;;;;;;4966533;28;20054;-76
2022/02/26 06:51:19;;;;;;;50.00;24.40;;;0.60;99.90;;;;;;4965081;28;20380;-76
2022/02/26 06:53:44;;;;;;;42.33;23.73;;;0.60;99.90;;;;;;4965983;28;20043;-76
2022/02/26 06:56:10;;;;;;;39.33;23.05;;;0.70;99.90;;;;;;4965519;28;20033;-76
2022/02/26 06:58:36;;;;;;;50.38;24.58;;;0.80;99.90;;;;;;4964749;28;20118;-76
2022/02/26 07:01:02;;;;;;;43.83;23.33;;;0.90;99.90;;;;;;4966297;28;20593;-76
2022/02/26 07:03:27;;;;;;;48.58;24.00;;;1.00;99.90;;;;;;4964926;28;20110;-76
2022/02/26 07:05:53;;;;;;;53.00;27.88;;;1.10;99.90;;;;;;4965214;28;20054;-76
2022/02/26 07:08:18;;;;;;;55.17;29.30;;;1.20;99.90;;;;;;4966594;28;20092;-76
2022/02/26 07:10:44;;;;;;;58.20;31.23;;;1.30;99.90;;;;;;4950259;28;20049;-77
2022/02/26 07:13:10;;;;;;;54.05;30.40;;;1.80;99.90;;;;;;4969229;28;20080;-76
2022/02/26 07:15:36;;;;;;;54.95;29.58;;;1.40;99.90;;;;;;4968795;28;20042;-76
2022/02/26 07:18:02;;;;;;;56.78;30.00;;;1.40;99.90;;;;;;4968610;28;20110;-76
2022/02/26 07:20:28;;;;;;;50.10;28.80;;;1.20;99.90;;;;;;4968561;28;20027;-77
2022/02/26 07:22:53;;;;;;;58.95;29.25;;;1.50;99.90;;;;;;4968085;28;20035;-76
2022/02/26 07:25:19;;;;;;;59.53;29.60;;;1.50;99.90;;;;;;4968707;28;20349;-77
2022/02/26 07:27:45;;;;;;;54.13;28.23;;;1.90;99.90;;;;;;4951044;28;20034;-76
2022/02/26 07:30:11;;;;;;;43.47;24.00;;;1.50;99.90;;;;;;4967651;28;20066;-76
2022/02/26 07:32:37;;;;;;;49.22;25.92;;;1.30;99.90;;;;;;4968865;28;20061;-76
2022/02/26 07:35:04;;;;;;;49.63;26.65;;;1.30;99.90;;;;;;4966101;28;20059;-76
2022/02/26 07:37:30;;;;;;;49.28;25.45;;;1.20;99.90;;;;;;4968186;28;20030;-76
2022/02/26 07:39:56;;;;;;;53.35;26.33;;;1.20;99.90;;;;;;4968257;28;20145;-76
2022/02/26 07:42:21;;;;;;;49.50;25.88;;;1.20;99.90;;;;;;4968799;28;20101;-76
2022/02/26 07:44:47;;;;;;;55.70;27.27;;;1.20;99.90;;;;;;4973216;28;20030;-76
2022/02/26 07:47:13;;;;;;;54.40;28.27;;;1.20;99.90;;;;;;4972589;28;20038;-76
2022/02/26 07:49:38;;;;;;;55.53;29.05;;;1.30;99.90;;;;;;4970863;28;20078;-76
2022/02/26 07:52:04;;;;;;;57.05;29.88;;;1.40;99.90;;;;;;4970206;28;20075;-76
2022/02/26 07:54:30;;;;;;;54.97;29.58;;;1.50;99.90;;;;;;4967872;28;20763;-76
2022/02/26 07:56:55;;;;;;;62.30;30.92;;;2.00;99.90;;;;;;4968351;28;20026;-76
2022/02/26 07:59:21;;;;;;;57.22;31.58;;;2.00;99.90;;;;;;4950159;28;20031;-76
2022/02/26 08:01:47;;;;;;;55.47;30.08;;;3.00;99.90;;;;;;4967962;28;20039;-76
2022/02/26 08:04:12;;;;;;;60.47;30.05;;;2.40;99.90;;;;;;4968751;28;20161;-76
2022/02/26 08:06:38;;;;;;;57.08;29.92;;;3.20;99.90;;;;;;4967541;28;20082;-75
2022/02/26 08:09:04;;;;;;;50.50;29.23;;;2.80;99.90;;;;;;4967547;28;20057;-75
2022/02/26 08:11:31;;;;;;;46.08;27.77;;;3.60;99.90;;;;;;4968265;28;20035;-75
2022/02/26 08:13:58;;;;;;;42.25;23.48;;;3.20;99.90;;;;;;4934665;28;20514;-75
2022/02/26 08:16:25;;;;;;;37.58;22.52;;;3.60;99.90;;;;;;4950818;28;20504;-75
2022/02/26 08:18:50;;;;;;;39.45;22.25;;;3.40;99.90;;;;;;4967875;28;20031;-75
2022/02/26 08:21:16;;;;;;;33.00;18.45;;;3.70;99.90;;;;;;4968540;28;20034;-75
2022/02/26 08:23:42;;;;;;;25.52;16.65;;;3.60;99.90;;;;;;4969451;28;20087;-75
2022/02/26 08:26:07;;;;;;;25.25;15.75;;;3.90;99.90;;;;;;4967885;28;20035;-75
2022/02/26 08:28:33;;;;;;;21.77;14.20;;;4.00;99.90;;;;;;4967050;28;20586;-75
2022/02/26 08:30:59;;;;;;;23.95;14.32;;;4.00;99.90;;;;;;4934985;28;20038;-75
2022/02/26 08:33:25;;;;;;;20.65;13.75;;;4.00;99.90;;;;;;4967499;28;20045;-75
2022/02/26 08:35:50;;;;;;;22.55;15.25;;;4.30;99.90;;;;;;4967667;28;20488;-75
2022/02/26 08:38:16;;;;;;;18.95;12.40;;;4.20;99.90;;;;;;4967901;28;20034;-75
2022/02/26 08:40:42;;;;;;;18.20;13.15;;;4.50;99.90;;;;;;4966996;28;20403;-75
2022/02/26 08:43:07;;;;;;;18.45;12.40;;;4.40;99.90;;;;;;4968074;28;20031;-75
2022/02/26 08:45:33;;;;;;;16.45;11.75;;;4.70;99.90;;;;;;4967088;28;20030;-75
2022/02/26 08:47:58;;;;;;;20.90;11.85;;;4.80;99.90;;;;;;4968291;28;20034;-74
2022/02/26 08:50:24;;;;;;;17.70;11.60;;;5.00;99.90;;;;;;4968265;28;20106;-75
2022/02/26 08:52:50;;;;;;;18.38;10.93;;;5.00;99.90;;;;;;4967432;28;20488;-75
2022/02/26 08:55:15;;;;;;;14.55;8.80;;;5.70;99.90;;;;;;4968420;28;20464;-75
2022/02/26 08:57:41;;;;;;;11.57;8.70;;;7.50;99.90;;;;;;4967549;28;20027;-75
2022/02/26 09:00:09;;;;;;;13.93;8.75;;;7.10;99.90;;;;;;4949495;28;20039;-74
2022/02/26 09:02:35;;;;;;;13.48;8.23;;;7.00;99.90;;;;;;4968127;28;20042;-75
2022/02/26 09:05:01;;;;;;;13.55;8.00;;;7.80;99.90;;;;;;4967955;28;20042;-75
2022/02/26 09:07:27;;;;;;;17.73;8.93;;;8.60;99.90;;;;;;4974235;28;20058;-74
2022/02/26 09:09:53;;;;;;;12.63;7.93;;;7.20;99.90;;;;;;4969284;28;20650;-75
2022/02/26 09:12:19;;;;;;;12.15;6.63;;;7.90;99.90;;;;;;4969140;28;20084;-75
2022/02/26 09:14:44;;;;;;;14.30;7.55;;;9.40;99.90;;;;;;4971238;28;20035;-74
2022/02/26 09:17:11;;;;;;;13.88;6.50;;;10.90;99.90;;;;;;4967244;28;20046;-75
2022/02/26 09:19:37;;;;;;;11.65;5.57;;;12.30;99.90;;;;;;4985392;28;20017;-74
2022/02/26 09:22:06;;;;;;;12.38;4.85;;;13.60;99.90;;;;;;4968775;28;20031;-74
2022/02/26 09:24:32;;;;;;;11.43;6.07;;;14.90;95.00;;;;;;4985091;28;20057;-74
2022/02/26 09:26:58;;;;;;;10.63;5.20;;;14.90;95.30;;;;;;4985915;28;20015;-74
2022/02/26 09:29:24;;;;;;;9.45;5.38;;;15.60;90.80;;;;;;4975411;28;20446;-75
2022/02/26 09:31:51;;;;;;;11.68;5.60;;;15.60;84.40;;;;;;4966362;28;20027;-75
2022/02/26 09:34:20;;;;;;;9.80;4.45;;;16.50;83.70;;;;;;4966743;28;20023;-74
2022/02/26 09:36:47;;;;;;;10.05;5.15;;;17.00;87.10;;;;;;4962867;28;20035;-75
2022/02/26 09:39:14;;;;;;;10.95;4.95;;;16.50;88.30;;;;;;4966087;28;20076;-75
2022/02/26 09:41:42;;;;;;;12.48;5.30;;;16.80;84.40;;;;;;4966808;28;20035;-73
2022/02/26 09:44:09;;;;;;;11.43;5.20;;;17.30;82.00;;;;;;4966786;28;20034;-74
2022/02/26 09:46:36;;;;;;;8.70;4.50;;;16.50;80.80;;;;;;4966189;28;20597;-74
2022/02/26 09:49:02;;;;;;;11.70;5.05;;;16.00;83.70;;;;;;4966044;28;20084;-74
2022/02/26 09:51:29;;;;;;;11.18;4.70;;;14.80;85.00;;;;;;4966586;28;20263;-74
2022/02/26 09:53:55;;;;;;;12.93;4.72;;;15.30;88.00;;;;;;4965834;28;20027;-74
2022/02/26 09:56:24;;;;;;;11.95;4.72;;;14.50;87.60;;;;;;4966682;28;20072;-74
2022/02/26 09:58:50;;;;;;;14.02;5.30;;;13.00;87.50;;;;;;4965916;28;20928;-75
2022/02/26 10:01:16;;;;;;;10.63;4.10;;;13.00;92.10;;;;;;4965908;28;20026;-75
2022/02/26 10:03:42;;;;;;;9.73;4.43;;;13.40;89.10;;;;;;4966770;28;20061;-74
2022/02/26 10:06:15;;;;;;;13.05;4.55;;;13.40;91.10;;;;;;4965911;28;20035;-75
2022/02/26 10:08:41;;;;;;;9.73;4.53;;;12.00;90.20;;;;;;4946072;29;20089;-77
2022/02/26 10:11:49;;;;;;;11.30;4.22;;;11.40;95.00;;;;;;4952352;28;20031;-74
2022/02/26 10:14:17;;;;;;;11.00;4.90;;;10.50;98.30;;;;;;4970411;28;20035;-74
2022/02/26 10:16:53;;;;;;;8.60;3.83;;;12.60;99.90;;;;;;4966490;28;20023;-75
2022/02/26 10:19:26;;;;;;;13.93;4.45;;;;;;;;;;4965741;28;20124;-75
2022/02/26 10:21:56;;;;;;;13.52;3.70;;;10.00;99.90;;;;;;4965497;28;20019;-74
2022/02/26 10:24:21;;;;;;;7.65;3.60;;;11.80;96.20;;;;;;4948888;28;20792;-74
2022/02/26 10:26:56;;;;;;;11.35;3.47;;;12.40;94.80;;;;;;4966478;28;20023;-77
2022/02/26 10:29:23;;;;;;;12.48;3.22;;;14.80;84.70;;;;;;4965963;28;20176;-75
2022/02/26 10:31:52;;;;;;;10.15;3.35;;;16.60;74.30;;;;;;4965724;28;20495;-75
2022/02/26 10:34:30;;;;;;;7.13;3.05;;;17.20;71.20;;;;;;4965795;28;20031;-74
2022/02/26 10:37:02;;;;;;;13.35;3.28;;;17.90;65.20;;;;;;4965599;28;20038;-75
2022/02/26 10:39:34;;;;;;;13.70;2.75;;;17.70;61.30;;;;;;4965908;28;20023;-75
2022/02/26 10:42:00;;;;;;;6.13;2.60;;;18.20;57.30;;;;;;4967020;28;20035;-75
2022/02/26 10:44:27;;;;;;;10.57;2.35;;;18.60;55.80;;;;;;4969368;28;20057;-75
2022/02/26 10:47:03;;;;;;;8.70;1.80;;;18.00;56.60;;;;;;4970429;28;20084;-74
2022/02/26 10:49:30;;;;;;;12.80;2.75;;;16.80;56.80;;;;;;4954262;28;20027;-75
2022/02/26 10:51:55;;;;;;;8.88;1.85;;;16.00;60.80;;;;;;4969228;28;20027;-77
2022/02/26 10:54:25;;;;;;;5.72;1.67;;;15.90;57.70;;;;;;4969040;28;20035;-74
2022/02/26 10:56:52;;;;;;;7.35;1.42;;;15.70;57.10;;;;;;4987399;23;20051;-77
2022/02/26 10:59:32;;;;;;;6.15;1.65;;;15.00;56.60;;;;;;4975853;28;20027;-77
2022/02/26 11:02:09;;;;;;;6.47;2.03;;;14.40;57.10;;;;;;4973006;28;20038;-77
2022/02/26 11:04:36;;;;;;;8.65;1.90;;;14.00;60.30;;;;;;4955903;28;20027;-78
2022/02/26 11:07:03;;;;;;;7.70;1.83;;;15.10;58.90;;;;;;4972328;28;20031;-78
2022/02/26 11:09:29;;;;;;;6.78;0.98;;;15.80;55.50;;;;;;4972893;28;20114;-78
2022/02/26 11:11:57;;;;;;;8.05;1.27;;;16.80;54.90;;;;;;4972989;28;20746;-78
2022/02/26 11:14:25;;;;;;;7.80;1.83;;;17.20;53.60;;;;;;4972695;28;20118;-78
2022/02/26 11:16:56;;;;;;;7.15;1.42;;;17.40;51.60;;;;;;4973115;28;20077;-78
2022/02/26 11:19:24;;;;;;;7.78;1.50;;;18.40;51.80;;;;;;4972760;28;20512;-78
2022/02/26 11:21:51;;;;;;;6.32;1.67;;;17.60;53.20;;;;;;4972569;28;20030;-78
2022/02/26 11:24:17;;;;;;;8.73;2.20;;;17.90;52.90;;;;;;4971659;28;20026;-78
2022/02/26 11:26:45;;;;;;;6.30;1.70;;;18.30;52.20;;;;;;4971835;28;20117;-78
2022/02/26 11:29:11;;;;;;;7.35;1.75;;;19.10;48.80;;;;;;4970036;28;20019;-78
2022/02/26 11:31:47;;;;;;;5.55;1.40;;;19.30;50.10;;;;;;4972998;28;20101;-78
2022/02/26 11:34:27;;;;;;;3.60;1.52;;;18.70;47.90;;;;;;4971917;28;20110;-78
2022/02/26 11:37:05;;;;;;;9.80;1.65;;;18.50;48.80;;;;;;4971686;28;20101;-78
2022/02/26 11:39:40;;;;;;;9.05;2.05;;;18.70;47.50;;;;;;4972707;28;20122;-78
2022/02/26 11:42:22;;;;;;;6.07;1.88;;;18.80;50.60;;;;;;4972628;28;20037;-79
2022/02/26 11:45:10;;;;;;;8.23;1.88;;;18.80;49.50;;;;;;4973145;28;20023;-78
2022/02/26 11:47:40;;;;;;;9.20;1.70;;;18.30;47.50;;;;;;4972529;28;20110;-78
2022/02/26 11:50:17;;;;;;;8.93;1.85;;;17.90;52.30;;;;;;4968846;28;20035;-77
2022/02/26 11:53:02;;;;;;;5.72;1.70;;;18.10;51.80;;;;;;4969829;28;20076;-78
2022/02/26 11:55:36;;;;;;;6.82;1.75;;;18.80;51.20;;;;;;4972002;28;20062;-78
2022/02/26 11:58:07;;;;;;;6.80;1.80;;;19.30;51.90;;;;;;4968428;28;20118;-78
2022/02/26 12:00:51;;;;;;;11.48;2.13;;;19.40;49.00;;;;;;4950063;29;20027;-78
2022/02/26 12:03:27;;;;;;;10.48;1.60;;;18.60;48.60;;;;;;4967737;28;20035;-77
2022/02/26 12:05:55;;;;;;;7.93;1.45;;;18.20;49.10;;;;;;4969745;28;20050;-77
2022/02/26 12:08:36;;;;;;;6.35;1.73;;;18.40;50.10;;;;;;4971074;28;20521;-77
2022/02/26 12:11:02;;;;;;;5.97;1.58;;;18.00;52.10;;;;;;4969775;28;20080;-78
2022/02/26 12:13:34;;;;;;;8.10;1.52;;;18.00;51.40;;;;;;4952455;28;20039;-77
2022/02/26 12:16:16;;;;;;;4.20;1.65;;;18.80;50.80;;;;;;4969319;28;20102;-78
2022/02/26 12:18:47;;;;;;;12.40;7.18;;;18.70;50.60;;;;;;4968594;28;20038;-78
2022/02/26 12:21:18;;;;;;;4.50;2.05;;;19.60;47.30;;;;;;4952283;28;20141;-78
2022/02/26 12:24:01;;;;;;;5.95;1.67;;;19.20;48.30;;;;;;4970059;28;20099;-78
2022/02/26 12:26:45;;;;;;;8.60;1.83;;;19.00;48.20;;;;;;4969555;28;20027;-77
2022/02/26 12:29:26;;;;;;;7.88;1.80;;;19.20;46.20;;;;;;4967717;28;20034;-78
2022/02/26 12:32:02;;;;;;;6.28;2.00;;;18.90;48.10;;;;;;4968207;28;20164;-78
2022/02/26 12:34:51;;;;;;;6.35;1.70;;;18.80;48.20;;;;;;4966543;28;20035;-78
2022/02/26 12:37:19;;;;;;;6.68;1.60;;;18.40;49.10;;;;;;4971272;28;20684;-78
2022/02/26 12:39:49;;;;;;;4.15;1.27;;;18.10;49.20;;;;;;4968787;28;20035;-78
2022/02/26 12:42:22;;;;;;;6.28;1.67;;;18.60;47.80;;;;;;4952912;28;20481;-78
2022/02/26 12:44:51;;;;;;;6.97;1.63;;;18.90;49.70;;;;;;4970497;28;20027;-77